Terminal Aerodrome Forecast
Issued by NWS

Home | Current Version | Previous Version | Graphics & Text | Print | Product List | Glossary On
Versions: 1 2 3 4 5 6 7 8 9 10 11 12 13 14
000
FTUS43 KICT 151120
TAFRSL
TAF
KRSL 151120Z 1512/1612 35015G22KT P6SM SKC
     FM151900 35011KT P6SM SKC
     FM160100 04005KT P6SM SCT250
     FM160400 11005KT P6SM SCT250
     FM161100 16009KT P6SM SCT250=

USA.gov is the U.S. government's official web portal to all federal, state and local government web resources and services.